createdAt,value
2022-08-28T00:01:57.093Z,13.57
2022-08-28T00:04:23.703Z,12.05
2022-08-28T00:06:50.241Z,12.63
2022-08-28T00:09:16.806Z,11.55
2022-08-28T00:11:43.344Z,11.02
2022-08-28T00:14:11.017Z,10.52
2022-08-28T00:16:37.779Z,12.52
2022-08-28T00:19:04.897Z,13.30
2022-08-28T00:21:31.877Z,10.02
2022-08-28T00:23:58.623Z,14.48
2022-08-28T00:26:25.712Z,8.75
2022-08-28T00:28:52.238Z,9.02
2022-08-28T00:31:18.816Z,9.40
2022-08-28T00:33:47.551Z,9.82
2022-08-28T00:36:14.814Z,12.82
2022-08-28T00:38:41.345Z,11.93
2022-08-28T00:41:09.103Z,12.80
2022-08-28T00:43:42.521Z,11.43
2022-08-28T00:46:12.899Z,11.35
2022-08-28T00:48:39.785Z,9.82
2022-08-28T00:51:06.977Z,10.13
2022-08-28T00:53:33.517Z,10.27
2022-08-28T00:56:04.131Z,10.30
2022-08-28T00:58:36.446Z,11.82
2022-08-28T01:01:03.336Z,10.38
2022-08-28T01:03:30.091Z,8.50
2022-08-28T01:05:57.661Z,8.20
2022-08-28T01:08:24.243Z,7.93
2022-08-28T01:10:54.547Z,7.72
2022-08-28T01:13:23.705Z,8.68
2022-08-28T01:15:51.203Z,7.65
2022-08-28T01:18:19.258Z,7.00
2022-08-28T01:21:20.952Z,8.88
2022-08-28T01:23:57.762Z,7.28
2022-08-28T01:26:25.517Z,6.13
2022-08-28T01:28:52.073Z,9.05
2022-08-28T01:31:18.849Z,8.15
2022-08-28T01:33:46.687Z,8.52
2022-08-28T01:36:14.586Z,6.70
2022-08-28T01:38:43.459Z,6.35
2022-08-28T01:41:11.573Z,5.45
2022-08-28T01:43:39.710Z,6.50
2022-08-28T01:46:08.074Z,5.57
2022-08-28T01:48:37.769Z,4.75
2022-08-28T01:51:05.822Z,6.15
2022-08-28T01:53:33.256Z,4.57
2022-08-28T01:56:03.102Z,7.15
2022-08-28T01:58:32.981Z,5.50
2022-08-28T02:01:02.830Z,6.38
2022-08-28T02:03:29.525Z,5.85
2022-08-28T02:05:56.019Z,6.07
2022-08-28T02:08:22.530Z,6.20
2022-08-28T02:10:49.149Z,4.75
2022-08-28T02:13:15.686Z,5.00
2022-08-28T02:15:44.486Z,5.18
2022-08-28T02:18:11.912Z,5.90
2022-08-28T02:20:38.593Z,4.93
2022-08-28T02:23:05.511Z,4.43
2022-08-28T02:25:32.043Z,5.45
2022-08-28T02:27:58.806Z,5.40
2022-08-28T02:30:25.506Z,9.27
2022-08-28T02:32:52.251Z,5.38
2022-08-28T02:35:20.378Z,4.80
2022-08-28T02:37:47.745Z,3.88
2022-08-28T02:40:15.713Z,5.03
2022-08-28T02:42:43.010Z,5.72
2022-08-28T02:45:11.542Z,3.88
2022-08-28T02:47:39.757Z,4.25
2022-08-28T02:50:07.704Z,3.97
2022-08-28T02:52:37.666Z,4.18
2022-08-28T02:55:06.613Z,4.50
2022-08-28T02:57:33.456Z,4.03
2022-08-28T02:59:59.990Z,4.03
2022-08-28T03:02:26.928Z,4.53
2022-08-28T03:04:53.847Z,5.80
2022-08-28T03:07:20.397Z,6.18
2022-08-28T03:09:46.935Z,6.40
2022-08-28T03:12:13.472Z,8.30
2022-08-28T03:14:40.148Z,6.25
2022-08-28T03:17:07.029Z,5.75
2022-08-28T03:19:33.993Z,4.72
2022-08-28T03:22:00.536Z,4.50
2022-08-28T03:24:27.053Z,5.25
2022-08-28T03:26:53.588Z,6.82
2022-08-28T03:29:20.091Z,7.03
2022-08-28T03:31:46.618Z,6.20
2022-08-28T03:34:13.114Z,5.65
2022-08-28T03:36:39.646Z,5.32
2022-08-28T03:39:06.955Z,4.65
2022-08-28T03:41:34.725Z,5.25
2022-08-28T03:44:02.110Z,5.90
2022-08-28T03:46:31.035Z,5.28
2022-08-28T03:48:57.712Z,7.38
2022-08-28T03:51:29.573Z,8.70
2022-08-28T03:53:58.198Z,9.20
2022-08-28T03:56:27.231Z,8.45
2022-08-28T03:58:56.467Z,7.93
2022-08-28T04:01:23.754Z,8.68
2022-08-28T04:03:50.373Z,6.90
2022-08-28T04:06:17.075Z,7.97
2022-08-28T04:08:43.565Z,5.80
2022-08-28T04:11:10.078Z,6.18
2022-08-28T04:13:36.786Z,6.43
2022-08-28T04:16:09.037Z,6.05
2022-08-28T04:18:35.884Z,7.03
2022-08-28T04:21:05.656Z,7.55
2022-08-28T04:23:32.168Z,5.05
2022-08-28T04:25:58.700Z,6.13
2022-08-28T04:28:25.296Z,6.15
2022-08-28T04:30:53.899Z,8.18
2022-08-28T04:33:25.870Z,5.47
2022-08-28T04:35:52.823Z,4.97
2022-08-28T04:38:19.458Z,4.78
2022-08-28T04:40:46.445Z,4.50
2022-08-28T04:43:13.114Z,4.50
2022-08-28T04:45:44.560Z,4.40
2022-08-28T04:48:14.007Z,5.53
2022-08-28T04:50:45.616Z,4.97
2022-08-28T04:53:13.022Z,4.88
2022-08-28T04:55:55.102Z,4.93
2022-08-28T04:58:24.274Z,5.60
2022-08-28T05:00:53.143Z,4.90
2022-08-28T05:03:20.406Z,5.72
2022-08-28T05:05:50.098Z,4.60
2022-08-28T05:08:19.294Z,6.07
2022-08-28T05:10:46.019Z,5.88
2022-08-28T05:13:14.120Z,6.53
2022-08-28T05:15:42.352Z,5.47
2022-08-28T05:18:08.960Z,4.97
2022-08-28T05:20:37.611Z,6.82
2022-08-28T05:23:05.286Z,5.07
2022-08-28T05:25:36.161Z,4.47
2022-08-28T05:28:02.891Z,5.30
2022-08-28T05:30:29.475Z,4.90
2022-08-28T05:32:55.996Z,5.68
2022-08-28T05:35:22.845Z,6.55
2022-08-28T05:37:49.371Z,4.72
2022-08-28T05:40:16.037Z,7.07
2022-08-28T05:42:42.581Z,8.98
2022-08-28T05:45:09.396Z,7.10
2022-08-28T05:47:35.910Z,15.05
2022-08-28T05:50:02.570Z,13.75
2022-08-28T05:52:29.069Z,15.90
2022-08-28T05:54:55.834Z,16.08
2022-08-28T05:57:22.358Z,17.63
2022-08-28T05:59:48.989Z,15.88
2022-08-28T06:02:15.559Z,15.93
2022-08-28T06:04:42.086Z,13.57
2022-08-28T06:07:08.627Z,14.88
2022-08-28T06:09:35.156Z,14.55
2022-08-28T06:12:02.209Z,13.40
2022-08-28T06:14:28.994Z,15.32
2022-08-28T06:16:56.653Z,14.10
2022-08-28T06:19:25.475Z,16.77
2022-08-28T06:21:56.156Z,10.50
2022-08-28T06:24:23.518Z,12.32
2022-08-28T06:26:50.103Z,9.63
2022-08-28T06:29:16.873Z,10.13
2022-08-28T06:31:44.240Z,12.77
2022-08-28T06:34:11.021Z,14.32
2022-08-28T06:36:41.492Z,10.65
2022-08-28T06:39:10.356Z,12.23
2022-08-28T06:41:37.327Z,9.52
2022-08-28T06:44:03.825Z,11.77
2022-08-28T06:46:30.387Z,11.38
2022-08-28T06:48:56.957Z,13.75
2022-08-28T06:51:25.105Z,13.40
2022-08-28T06:53:52.186Z,13.80
2022-08-28T06:56:25.907Z,13.93
2022-08-28T06:58:56.370Z,16.30
2022-08-28T07:01:25.931Z,15.05
2022-08-28T07:03:54.263Z,18.60
2022-08-28T07:06:22.688Z,18.52
2022-08-28T07:08:49.865Z,17.10
2022-08-28T07:11:26.164Z,20.33
2022-08-28T07:13:54.091Z,20.27
2022-08-28T07:16:22.888Z,15.77
2022-08-28T07:18:49.815Z,15.68
2022-08-28T07:21:16.520Z,14.57
2022-08-28T07:23:44.579Z,16.27
2022-08-28T07:26:14.645Z,17.92
2022-08-28T07:28:41.546Z,17.15
2022-08-28T07:31:11.396Z,15.23
2022-08-28T07:33:39.501Z,16.25
2022-08-28T07:36:08.121Z,17.73
2022-08-28T07:38:42.466Z,16.05
2022-08-28T07:41:20.410Z,14.80
2022-08-28T07:43:46.920Z,19.40
2022-08-28T07:46:13.660Z,15.88
2022-08-28T07:48:41.623Z,16.75
2022-08-28T07:51:09.516Z,14.23
2022-08-28T07:53:36.691Z,14.88
2022-08-28T07:56:04.531Z,20.38
2022-08-28T07:58:31.302Z,16.60
2022-08-28T08:00:58.292Z,15.95
2022-08-28T08:03:24.860Z,13.30
2022-08-28T08:05:56.693Z,15.07
2022-08-28T08:08:24.062Z,13.48
2022-08-28T08:11:08.397Z,14.00
2022-08-28T08:13:39.154Z,15.55
2022-08-28T08:16:12.096Z,21.48
2022-08-28T08:18:40.198Z,16.17
2022-08-28T08:21:09.134Z,16.52
2022-08-28T08:23:36.279Z,19.67
2022-08-28T08:26:06.376Z,19.00
2022-08-28T08:28:34.489Z,13.10
2022-08-28T08:31:06.316Z,20.15
2022-08-28T08:33:32.979Z,19.60
2022-08-28T08:35:59.803Z,17.48
2022-08-28T08:38:28.120Z,19.27
2022-08-28T08:40:54.698Z,18.00
2022-08-28T08:43:22.214Z,17.23
2022-08-28T08:45:49.961Z,14.75
2022-08-28T08:48:35.595Z,20.33
2022-08-28T08:51:11.200Z,20.27
2022-08-28T08:53:46.798Z,17.42
2022-08-28T08:56:16.306Z,21.95
2022-08-28T08:58:47.573Z,14.35
2022-08-28T09:01:28.606Z,21.23
2022-08-28T09:04:00.981Z,18.27
2022-08-28T09:07:01.668Z,23.23
2022-08-28T09:09:31.355Z,16.15
2022-08-28T09:12:08.645Z,17.63
2022-08-28T09:14:50.393Z,17.65
2022-08-28T09:17:19.869Z,12.82
2022-08-28T09:19:46.570Z,17.55
2022-08-28T09:22:13.230Z,14.15
2022-08-28T09:24:40.723Z,13.27
2022-08-28T09:27:20.881Z,9.32
2022-08-28T09:29:56.525Z,10.07
2022-08-28T09:32:31.031Z,9.45
2022-08-28T09:35:05.657Z,13.88
2022-08-28T09:37:34.128Z,7.55
2022-08-28T09:40:32.429Z,6.28
2022-08-28T09:43:01.951Z,8.75
2022-08-28T09:45:29.775Z,7.32
2022-08-28T09:47:58.064Z,8.43
2022-08-28T09:50:24.500Z,6.68
2022-08-28T09:52:53.413Z,6.43
2022-08-28T09:55:29.985Z,7.60
2022-08-28T09:57:56.634Z,8.52
2022-08-28T10:00:23.169Z,7.15
2022-08-28T10:02:59.379Z,7.47
2022-08-28T10:05:37.895Z,8.15
2022-08-28T10:08:20.540Z,7.13
2022-08-28T10:10:55.436Z,7.50
2022-08-28T10:13:34.337Z,6.80
2022-08-28T10:16:41.195Z,8.18
2022-08-28T10:19:19.538Z,5.93
2022-08-28T10:22:11.211Z,5.47
2022-08-28T10:24:58.706Z,6.40
2022-08-28T10:27:48.395Z,4.68
2022-08-28T10:30:22.551Z,6.93
2022-08-28T10:32:55.153Z,5.85
2022-08-28T10:35:25.617Z,6.00
2022-08-28T10:38:10.816Z,5.72
2022-08-28T10:40:49.676Z,5.57
2022-08-28T10:43:18.867Z,6.47
2022-08-28T10:45:45.957Z,5.60
2022-08-28T10:48:27.176Z,5.40
2022-08-28T10:50:58.454Z,6.05
2022-08-28T10:53:32.055Z,5.05
2022-08-28T10:56:03.044Z,4.95
2022-08-28T10:58:32.427Z,4.70
2022-08-28T11:01:10.005Z,5.60
2022-08-28T11:03:44.182Z,4.70
2022-08-28T11:06:22.823Z,4.00
2022-08-28T11:08:56.186Z,4.00
2022-08-28T11:11:46.636Z,4.43
2022-08-28T11:14:42.797Z,5.10
2022-08-28T11:17:24.259Z,4.40
2022-08-28T11:19:59.759Z,4.80
2022-08-28T11:22:36.058Z,4.30
2022-08-28T11:25:14.595Z,7.22
2022-08-28T11:28:19.157Z,4.07
2022-08-28T11:30:48.421Z,4.88
2022-08-28T11:33:41.114Z,4.55
2022-08-28T11:36:19.514Z,4.47
2022-08-28T11:38:45.991Z,4.35
2022-08-28T11:41:16.130Z,5.90
2022-08-28T11:43:44.801Z,3.72
2022-08-28T11:46:24.958Z,7.40
2022-08-28T11:48:54.974Z,4.18
2022-08-28T11:51:29.890Z,4.50
2022-08-28T11:54:18.283Z,4.22
2022-08-28T11:57:02.320Z,4.95
2022-08-28T11:59:55.194Z,5.05
2022-08-28T12:02:40.177Z,4.30
2022-08-28T12:05:07.080Z,4.88
2022-08-28T12:07:39.935Z,4.03
2022-08-28T12:10:24.405Z,3.83
2022-08-28T12:13:02.082Z,4.55
2022-08-28T12:15:31.309Z,4.65
2022-08-28T12:18:01.735Z,3.92
2022-08-28T12:20:46.658Z,5.05
2022-08-28T12:23:34.954Z,4.45
2022-08-28T12:26:14.871Z,4.18
2022-08-28T12:29:01.222Z,5.05
2022-08-28T12:31:52.143Z,4.85
2022-08-28T12:34:44.686Z,4.72
2022-08-28T12:37:30.295Z,4.22
2022-08-28T12:40:02.613Z,4.38
2022-08-28T12:42:35.614Z,5.28
2022-08-28T12:47:30.387Z,4.00
2022-08-28T12:49:56.947Z,4.65
2022-08-28T12:52:25.978Z,4.90
2022-08-28T12:54:54.753Z,4.03
2022-08-28T12:57:23.458Z,5.15
2022-08-28T12:59:54.105Z,5.75
2022-08-28T13:02:34.160Z,4.18
2022-08-28T13:05:09.908Z,4.22
2022-08-28T13:07:46.211Z,4.13
2022-08-28T13:10:26.884Z,3.90
2022-08-28T13:13:05.378Z,4.15
2022-08-28T13:15:49.697Z,6.00
2022-08-28T13:18:37.772Z,4.72
2022-08-28T13:21:13.314Z,4.35
2022-08-28T13:23:40.466Z,3.88
2022-08-28T13:26:07.548Z,4.30
2022-08-28T13:28:42.103Z,5.13
2022-08-28T13:31:22.696Z,4.50
2022-08-28T13:34:06.407Z,6.00
2022-08-28T13:39:05.988Z,6.65
2022-08-28T13:41:32.802Z,8.20
2022-08-28T13:43:59.375Z,7.07
2022-08-28T13:46:25.976Z,6.32
2022-08-28T13:48:52.554Z,6.80
2022-08-28T13:51:21.364Z,7.20
2022-08-28T13:53:48.970Z,7.35
2022-08-28T13:56:17.094Z,7.25
2022-08-28T13:58:43.629Z,7.18
2022-08-28T14:01:10.954Z,6.90
2022-08-28T14:03:37.502Z,8.18
2022-08-28T14:06:07.810Z,8.45
2022-08-28T14:08:34.953Z,5.40
2022-08-28T14:11:01.437Z,5.68
2022-08-28T14:13:28.023Z,7.35
2022-08-28T14:15:58.052Z,5.97
2022-08-28T14:18:25.617Z,6.32
2022-08-28T14:20:52.462Z,6.90
2022-08-28T14:23:19.040Z,6.10
2022-08-28T14:25:46.987Z,7.20
2022-08-28T14:28:14.651Z,7.18
2022-08-28T14:30:49.537Z,5.82
2022-08-28T14:33:16.889Z,6.80
2022-08-28T14:35:43.405Z,5.35
2022-08-28T14:38:10.688Z,6.82
2022-08-28T14:40:41.995Z,6.78
2022-08-28T14:43:09.839Z,6.95
2022-08-28T14:45:44.447Z,5.55
2022-08-28T14:48:11.173Z,5.72
2022-08-28T14:50:47.201Z,6.10
2022-08-28T14:53:15.199Z,5.20
2022-08-28T14:55:43.603Z,4.57
2022-08-28T14:58:10.328Z,5.25
2022-08-28T15:00:47.817Z,5.10
2022-08-28T15:03:15.110Z,5.90
2022-08-28T15:05:42.452Z,5.75
2022-08-28T15:08:11.039Z,4.72
2022-08-28T15:10:39.460Z,5.60
2022-08-28T15:13:07.808Z,4.60
2022-08-28T15:15:36.447Z,4.25
2022-08-28T15:18:02.953Z,5.95
2022-08-28T15:20:29.445Z,3.22
2022-08-28T15:22:55.957Z,4.95
2022-08-28T15:25:22.571Z,2.90
2022-08-28T15:27:49.088Z,2.75
2022-08-28T15:30:16.059Z,3.67
2022-08-28T15:32:42.567Z,2.30
2022-08-28T15:35:09.477Z,2.70
2022-08-28T15:37:36.003Z,2.15
2022-08-28T15:40:02.649Z,5.15
2022-08-28T15:42:29.870Z,3.25
2022-08-28T15:44:56.532Z,2.80
2022-08-28T15:47:24.272Z,2.80
2022-08-28T15:49:55.721Z,3.45
2022-08-28T15:52:22.409Z,2.58
2022-08-28T15:54:49.323Z,2.10
2022-08-28T15:57:16.423Z,2.90
2022-08-28T15:59:50.472Z,2.60
2022-08-28T16:02:22.575Z,2.22
2022-08-28T16:04:49.303Z,3.45
2022-08-28T16:07:16.610Z,5.22
2022-08-28T16:09:45.022Z,3.38
2022-08-28T16:12:11.548Z,2.33
2022-08-28T16:14:38.075Z,4.28
2022-08-28T16:17:05.728Z,4.55
2022-08-28T16:19:38.074Z,2.78
2022-08-28T16:22:04.736Z,3.88
2022-08-28T16:24:31.289Z,3.55
2022-08-28T16:26:57.845Z,2.85
2022-08-28T16:29:24.362Z,2.88
2022-08-28T16:31:50.952Z,3.97
2022-08-28T16:34:19.409Z,1.95
2022-08-28T16:36:47.580Z,2.72
2022-08-28T16:39:14.355Z,3.42
2022-08-28T16:41:40.872Z,2.65
2022-08-28T16:44:07.445Z,2.97
2022-08-28T16:46:34.140Z,2.70
2022-08-28T16:49:00.690Z,1.95
2022-08-28T16:51:27.214Z,3.30
2022-08-28T16:53:54.675Z,2.63
2022-08-28T16:56:21.267Z,1.80
2022-08-28T16:58:47.838Z,1.98
2022-08-28T17:01:19.646Z,1.80
2022-08-28T17:03:47.588Z,2.78
2022-08-28T17:06:18.914Z,1.85
2022-08-28T17:08:45.767Z,2.45
2022-08-28T17:11:12.582Z,3.38
2022-08-28T17:13:39.934Z,2.35
2022-08-28T17:16:07.382Z,1.83
2022-08-28T17:18:34.396Z,2.22
2022-08-28T17:21:00.927Z,2.10
2022-08-28T17:23:27.593Z,2.03
2022-08-28T17:25:54.109Z,1.48
2022-08-28T17:28:20.715Z,1.83
2022-08-28T17:30:47.216Z,1.40
2022-08-28T17:33:13.737Z,1.95
2022-08-28T17:35:42.225Z,2.00
2022-08-28T17:38:09.018Z,2.47
2022-08-28T17:40:35.648Z,2.20
2022-08-28T17:43:02.449Z,1.67
2022-08-28T17:45:29.470Z,1.83
2022-08-28T17:47:56.047Z,1.38
2022-08-28T17:50:22.712Z,1.92
2022-08-28T17:52:49.308Z,1.33
2022-08-28T17:55:17.135Z,1.85
2022-08-28T17:57:43.657Z,2.03
2022-08-28T18:00:12.335Z,2.33
2022-08-28T18:02:39.592Z,2.03
2022-08-28T18:05:08.407Z,1.90
2022-08-28T18:07:35.067Z,1.95
2022-08-28T18:10:01.673Z,1.42
2022-08-28T18:12:28.263Z,2.53
2022-08-28T18:14:54.801Z,2.00
2022-08-28T18:17:21.415Z,2.85
2022-08-28T18:19:48.074Z,1.77
2022-08-28T18:22:14.886Z,2.30
2022-08-28T18:24:41.889Z,2.08
2022-08-28T18:27:08.451Z,1.83
2022-08-28T18:29:36.523Z,2.08
2022-08-28T18:32:05.104Z,2.00
2022-08-28T18:34:31.754Z,2.38
2022-08-28T18:36:59.306Z,1.58
2022-08-28T18:39:29.365Z,2.20
2022-08-28T18:41:57.105Z,3.90
2022-08-28T18:44:24.486Z,2.22
2022-08-28T18:46:51.194Z,2.85
2022-08-28T18:49:17.731Z,1.95
2022-08-28T18:51:44.972Z,2.05
2022-08-28T18:54:16.379Z,2.60
2022-08-28T18:56:43.697Z,2.30
2022-08-28T18:59:10.425Z,2.67
2022-08-28T19:01:37.182Z,1.80
2022-08-28T19:04:04.874Z,1.83
2022-08-28T19:06:32.905Z,3.00
2022-08-28T19:08:59.494Z,3.40
2022-08-28T19:11:26.089Z,1.90
2022-08-28T19:13:52.604Z,2.55
2022-08-28T19:16:20.149Z,2.92
2022-08-28T19:18:47.904Z,2.13
2022-08-28T19:21:17.738Z,3.45
2022-08-28T19:23:44.534Z,3.00
2022-08-28T19:26:22.454Z,3.95
2022-08-28T19:28:49.022Z,2.95
2022-08-28T19:31:15.605Z,2.78
2022-08-28T19:33:42.145Z,3.72
2022-08-28T19:36:08.699Z,2.50
2022-08-28T19:38:35.305Z,2.53
2022-08-28T19:41:06.230Z,2.67
2022-08-28T19:43:39.784Z,2.33
2022-08-28T19:46:18.305Z,2.10
2022-08-28T19:48:47.731Z,3.97
2022-08-28T19:51:22.928Z,2.05
2022-08-28T19:53:56.890Z,2.88
2022-08-28T19:58:50.847Z,1.30
2022-08-28T20:01:17.458Z,1.70
2022-08-28T20:03:44.010Z,2.92
2022-08-28T20:06:10.523Z,2.72
2022-08-28T20:08:37.086Z,3.97
2022-08-28T20:11:03.694Z,2.83
2022-08-28T20:13:30.513Z,1.50
2022-08-28T20:15:57.130Z,3.33
2022-08-28T20:18:23.819Z,2.10
2022-08-28T20:20:50.793Z,1.65
2022-08-28T20:23:17.991Z,2.70
2022-08-28T20:25:48.807Z,3.15
2022-08-28T20:28:17.109Z,3.15
2022-08-28T20:30:43.775Z,3.20
2022-08-28T20:33:10.743Z,4.93
2022-08-28T20:35:37.328Z,2.13
2022-08-28T20:38:04.671Z,3.33
2022-08-28T20:40:31.291Z,2.40
2022-08-28T20:42:59.423Z,1.92
2022-08-28T20:45:26.165Z,3.53
2022-08-28T20:47:52.629Z,2.13
2022-08-28T20:50:19.571Z,3.13
2022-08-28T20:52:46.175Z,3.10
2022-08-28T20:55:12.782Z,2.13
2022-08-28T20:57:39.291Z,2.67
2022-08-28T21:00:07.710Z,2.92
2022-08-28T21:02:34.344Z,2.53
2022-08-28T21:05:01.220Z,3.00
2022-08-28T21:07:28.081Z,3.60
2022-08-28T21:10:06.300Z,2.75
2022-08-28T21:12:37.935Z,3.15
2022-08-28T21:15:07.427Z,2.92
2022-08-28T21:17:34.063Z,2.55
2022-08-28T21:20:12.327Z,5.00
2022-08-28T21:22:40.226Z,2.95
2022-08-28T21:25:09.345Z,2.40
2022-08-28T21:27:36.544Z,3.13
2022-08-28T21:30:05.807Z,4.95
2022-08-28T21:32:34.019Z,3.08
2022-08-28T21:35:01.279Z,3.15
2022-08-28T21:37:28.366Z,2.55
2022-08-28T21:39:56.296Z,3.35
2022-08-28T21:42:23.406Z,3.45
2022-08-28T21:44:51.959Z,4.00
2022-08-28T21:47:20.398Z,3.63
2022-08-28T21:49:51.206Z,2.95
2022-08-28T21:52:19.486Z,2.35
2022-08-28T21:54:46.139Z,3.28
2022-08-28T21:57:12.686Z,3.25
2022-08-28T21:59:39.478Z,2.90
2022-08-28T22:02:06.271Z,2.30
2022-08-28T22:04:33.079Z,4.28
2022-08-28T22:06:59.623Z,2.42
2022-08-28T22:09:26.526Z,3.42
2022-08-28T22:11:53.232Z,3.22
2022-08-28T22:14:19.813Z,3.75
2022-08-28T22:16:46.452Z,2.88
2022-08-28T22:19:13.066Z,2.00
2022-08-28T22:21:39.623Z,2.75
2022-08-28T22:24:06.818Z,1.88
2022-08-28T22:26:33.501Z,1.80
2022-08-28T22:29:00.055Z,2.08
2022-08-28T22:31:26.709Z,2.75
2022-08-28T22:33:53.361Z,2.10
2022-08-28T22:36:20.955Z,3.03
2022-08-28T22:38:50.485Z,2.80
2022-08-28T22:41:19.887Z,2.47
2022-08-28T22:43:47.784Z,3.78
2022-08-28T22:46:17.053Z,2.25
2022-08-28T22:48:43.655Z,4.80
2022-08-28T22:51:12.917Z,2.75
2022-08-28T22:53:40.964Z,3.80
2022-08-28T22:56:08.648Z,3.30
2022-08-28T22:58:35.390Z,2.25
2022-08-28T23:01:10.238Z,2.90
2022-08-28T23:03:36.997Z,2.28
2022-08-28T23:06:03.772Z,2.95
2022-08-28T23:08:33.881Z,2.97
2022-08-28T23:11:01.067Z,1.60
2022-08-28T23:13:28.686Z,2.30
2022-08-28T23:15:55.209Z,2.20
2022-08-28T23:18:21.686Z,1.90
2022-08-28T23:20:50.546Z,3.33
2022-08-28T23:23:18.967Z,1.83
2022-08-28T23:25:45.529Z,4.05
2022-08-28T23:28:12.519Z,3.17
2022-08-28T23:30:39.841Z,3.00
2022-08-28T23:33:08.545Z,4.03
2022-08-28T23:35:36.091Z,3.53
2022-08-28T23:38:03.802Z,1.80
2022-08-28T23:40:30.535Z,2.35
2022-08-28T23:42:57.187Z,3.67
2022-08-28T23:45:23.762Z,1.65
2022-08-28T23:47:50.523Z,3.85
2022-08-28T23:50:20.604Z,2.50
2022-08-28T23:52:48.032Z,1.90
2022-08-28T23:55:17.746Z,2.13
2022-08-28T23:57:44.279Z,2.83
